sensor_id;sensor_type;location;lat;lon;timestamp;temperature;humidity
40556;DHT22;26250;45.422;11.100;2022-11-06T09:05:28;12.30;81.60
40556;DHT22;26250;45.422;11.100;2022-11-06T09:07:57;12.40;82.30
40556;DHT22;26250;45.422;11.100;2022-11-06T09:10:25;12.40;84.00
40556;DHT22;26250;45.422;11.100;2022-11-06T09:12:57;12.40;82.50
40556;DHT22;26250;45.422;11.100;2022-11-06T09:15:25;12.50;81.00
40556;DHT22;26250;45.422;11.100;2022-11-06T09:17:52;12.60;81.00
40556;DHT22;26250;45.422;11.100;2022-11-06T09:20:22;12.60;81.10
40556;DHT22;26250;45.422;11.100;2022-11-06T09:22:50;12.70;80.50
40556;DHT22;26250;45.422;11.100;2022-11-06T09:25:17;12.70;80.00
40556;DHT22;26250;45.422;11.100;2022-11-06T09:27:50;12.80;80.40
40556;DHT22;26250;45.422;11.100;2022-11-06T09:30:26;12.80;86.40
40556;DHT22;26250;45.422;11.100;2022-11-06T09:32:56;12.90;89.10
40556;DHT22;26250;45.422;11.100;2022-11-06T09:35:25;12.90;81.90
40556;DHT22;26250;45.422;11.100;2022-11-06T09:37:59;13.00;83.40
40556;DHT22;26250;45.422;11.100;2022-11-06T09:45:39;13.20;88.20
40556;DHT22;26250;45.422;11.100;2022-11-06T16:15:56;14.10;89.40
40556;DHT22;26250;45.422;11.100;2022-11-06T16:18:32;14.00;89.80
40556;DHT22;26250;45.422;11.100;2022-11-06T16:21:21;14.00;90.00
40556;DHT22;26250;45.422;11.100;2022-11-06T16:24:22;13.80;90.30
40556;DHT22;26250;45.422;11.100;2022-11-06T16:26:48;13.80;90.40
40556;DHT22;26250;45.422;11.100;2022-11-06T16:29:19;13.80;90.50
40556;DHT22;26250;45.422;11.100;2022-11-06T16:31:56;13.70;91.00
40556;DHT22;26250;45.422;11.100;2022-11-06T16:34:39;13.70;90.80
40556;DHT22;26250;45.422;11.100;2022-11-06T16:39:52;13.70;90.70
40556;DHT22;26250;45.422;11.100;2022-11-06T16:42:30;13.70;90.70
40556;DHT22;26250;45.422;11.100;2022-11-06T16:44:59;13.70;90.90
40556;DHT22;26250;45.422;11.100;2022-11-06T16:47:26;13.70;91.10
40556;DHT22;26250;45.422;11.100;2022-11-06T16:49:54;13.60;91.30
40556;DHT22;26250;45.422;11.100;2022-11-06T16:52:38;13.40;91.90
40556;DHT22;26250;45.422;11.100;2022-11-06T16:55:22;13.50;94.20
40556;DHT22;26250;45.422;11.100;2022-11-06T16:57:58;13.50;95.10
40556;DHT22;26250;45.422;11.100;2022-11-06T17:00:28;13.50;96.50
40556;DHT22;26250;45.422;11.100;2022-11-06T17:03:06;13.50;93.30
40556;DHT22;26250;45.422;11.100;2022-11-06T17:05:35;13.60;93.80
40556;DHT22;26250;45.422;11.100;2022-11-06T17:08:28;13.40;92.40
40556;DHT22;26250;45.422;11.100;2022-11-06T17:10:56;13.30;92.10
40556;DHT22;26250;45.422;11.100;2022-11-06T17:13:33;13.20;92.30
40556;DHT22;26250;45.422;11.100;2022-11-06T17:16:05;13.10;92.50
40556;DHT22;26250;45.422;11.100;2022-11-06T17:18:36;12.90;92.80
40556;DHT22;26250;45.422;11.100;2022-11-06T17:21:11;12.80;93.10
40556;DHT22;26250;45.422;11.100;2022-11-06T17:23:39;12.80;93.20
40556;DHT22;26250;45.422;11.100;2022-11-06T17:26:24;12.80;93.10
40556;DHT22;26250;45.422;11.100;2022-11-06T17:28:54;12.60;93.10
40556;DHT22;26250;45.422;11.100;2022-11-06T17:31:22;12.70;92.90
40556;DHT22;26250;45.422;11.100;2022-11-06T17:33:50;12.70;92.90
40556;DHT22;26250;45.422;11.100;2022-11-06T17:36:24;12.70;92.90
40556;DHT22;26250;45.422;11.100;2022-11-06T17:38:53;12.80;92.50
40556;DHT22;26250;45.422;11.100;2022-11-06T17:41:21;12.90;92.40
40556;DHT22;26250;45.422;11.100;2022-11-06T17:46:35;12.70;92.80
40556;DHT22;26250;45.422;11.100;2022-11-06T17:49:03;12.50;92.90
40556;DHT22;26250;45.422;11.100;2022-11-06T17:51:30;12.50;93.10
40556;DHT22;26250;45.422;11.100;2022-11-06T17:54:18;12.50;93.00
40556;DHT22;26250;45.422;11.100;2022-11-06T17:56:45;12.60;92.90
40556;DHT22;26250;45.422;11.100;2022-11-06T17:59:15;12.60;92.80
40556;DHT22;26250;45.422;11.100;2022-11-06T18:01:42;12.60;92.90
40556;DHT22;26250;45.422;11.100;2022-11-06T18:04:09;12.60;92.80
40556;DHT22;26250;45.422;11.100;2022-11-06T18:06:36;12.50;92.90
40556;DHT22;26250;45.422;11.100;2022-11-06T18:09:05;12.40;92.90
40556;DHT22;26250;45.422;11.100;2022-11-06T18:11:33;12.30;93.30
40556;DHT22;26250;45.422;11.100;2022-11-06T18:14:00;12.30;93.00
40556;DHT22;26250;45.422;11.100;2022-11-06T18:16:32;12.30;93.40
40556;DHT22;26250;45.422;11.100;2022-11-06T18:19:08;12.30;93.40
40556;DHT22;26250;45.422;11.100;2022-11-06T18:21:38;12.30;93.20
40556;DHT22;26250;45.422;11.100;2022-11-06T18:24:05;12.30;93.20
40556;DHT22;26250;45.422;11.100;2022-11-06T18:26:33;12.30;93.40
40556;DHT22;26250;45.422;11.100;2022-11-06T18:28:59;12.20;93.40
40556;DHT22;26250;45.422;11.100;2022-11-06T18:31:26;12.30;93.30
40556;DHT22;26250;45.422;11.100;2022-11-06T18:33:53;12.20;93.20
40556;DHT22;26250;45.422;11.100;2022-11-06T18:36:20;12.30;93.20
40556;DHT22;26250;45.422;11.100;2022-11-06T18:38:47;12.20;93.10
40556;DHT22;26250;45.422;11.100;2022-11-06T18:41:18;12.10;93.10
40556;DHT22;26250;45.422;11.100;2022-11-06T18:43:45;12.10;93.20
40556;DHT22;26250;45.422;11.100;2022-11-06T18:46:17;12.10;93.20
40556;DHT22;26250;45.422;11.100;2022-11-06T18:48:44;12.00;94.40
40556;DHT22;26250;45.422;11.100;2022-11-06T18:51:14;12.10;93.50
40556;DHT22;26250;45.422;11.100;2022-11-06T18:54:01;12.20;93.70
40556;DHT22;26250;45.422;11.100;2022-11-06T18:56:30;12.10;92.70
40556;DHT22;26250;45.422;11.100;2022-11-06T18:58:58;12.20;92.60
40556;DHT22;26250;45.422;11.100;2022-11-06T19:01:25;12.20;92.40
40556;DHT22;26250;45.422;11.100;2022-11-06T19:03:52;12.30;92.70
40556;DHT22;26250;45.422;11.100;2022-11-06T19:06:19;12.10;92.60
40556;DHT22;26250;45.422;11.100;2022-11-06T19:08:46;12.00;92.70
40556;DHT22;26250;45.422;11.100;2022-11-06T19:11:15;12.00;93.00
40556;DHT22;26250;45.422;11.100;2022-11-06T19:13:42;11.90;93.20
40556;DHT22;26250;45.422;11.100;2022-11-06T19:16:14;11.80;93.00
40556;DHT22;26250;45.422;11.100;2022-11-06T19:18:41;11.80;93.10
40556;DHT22;26250;45.422;11.100;2022-11-06T19:21:09;11.80;93.30
40556;DHT22;26250;45.422;11.100;2022-11-06T19:23:38;11.80;93.70
40556;DHT22;26250;45.422;11.100;2022-11-06T19:26:10;11.70;93.80
40556;DHT22;26250;45.422;11.100;2022-11-06T19:28:57;11.70;93.80
40556;DHT22;26250;45.422;11.100;2022-11-06T19:31:25;11.60;93.80
40556;DHT22;26250;45.422;11.100;2022-11-06T19:33:59;11.60;93.90
40556;DHT22;26250;45.422;11.100;2022-11-06T19:36:27;11.50;94.20
40556;DHT22;26250;45.422;11.100;2022-11-06T19:38:54;11.40;94.10
40556;DHT22;26250;45.422;11.100;2022-11-06T19:41:25;11.40;94.10
40556;DHT22;26250;45.422;11.100;2022-11-06T19:43:52;11.50;93.60
40556;DHT22;26250;45.422;11.100;2022-11-06T19:46:19;11.60;93.50
40556;DHT22;26250;45.422;11.100;2022-11-06T19:48:54;11.60;93.50
40556;DHT22;26250;45.422;11.100;2022-11-06T19:51:23;11.70;93.30
40556;DHT22;26250;45.422;11.100;2022-11-06T19:53:54;11.80;93.10
40556;DHT22;26250;45.422;11.100;2022-11-06T19:56:21;11.80;92.90
40556;DHT22;26250;45.422;11.100;2022-11-06T19:58:50;11.80;93.30
40556;DHT22;26250;45.422;11.100;2022-11-06T20:01:18;11.70;93.30
40556;DHT22;26250;45.422;11.100;2022-11-06T20:03:45;11.70;93.30
40556;DHT22;26250;45.422;11.100;2022-11-06T20:06:13;11.60;95.10
40556;DHT22;26250;45.422;11.100;2022-11-06T20:08:41;11.80;98.10
40556;DHT22;26250;45.422;11.100;2022-11-06T20:11:10;12.00;99.90
40556;DHT22;26250;45.422;11.100;2022-11-06T20:13:39;12.00;95.20
40556;DHT22;26250;45.422;11.100;2022-11-06T20:16:11;11.80;93.40
40556;DHT22;26250;45.422;11.100;2022-11-06T20:18:40;11.50;93.90
40556;DHT22;26250;45.422;11.100;2022-11-06T20:21:10;11.40;94.10
40556;DHT22;26250;45.422;11.100;2022-11-06T20:23:37;11.40;93.70
40556;DHT22;26250;45.422;11.100;2022-11-06T20:26:06;11.30;94.10
40556;DHT22;26250;45.422;11.100;2022-11-06T20:28:33;11.30;93.90
40556;DHT22;26250;45.422;11.100;2022-11-06T20:31:07;11.30;93.60
40556;DHT22;26250;45.422;11.100;2022-11-06T20:33:36;11.20;93.50
40556;DHT22;26250;45.422;11.100;2022-11-06T20:36:16;11.20;93.40
40556;DHT22;26250;45.422;11.100;2022-11-06T20:38:45;11.20;93.00
40556;DHT22;26250;45.422;11.100;2022-11-06T20:41:12;11.20;92.20
40556;DHT22;26250;45.422;11.100;2022-11-06T20:43:42;11.10;92.00
40556;DHT22;26250;45.422;11.100;2022-11-06T20:46:11;11.30;91.80
40556;DHT22;26250;45.422;11.100;2022-11-06T20:48:43;11.40;92.00
40556;DHT22;26250;45.422;11.100;2022-11-06T20:51:13;11.40;92.00
40556;DHT22;26250;45.422;11.100;2022-11-06T20:53:41;11.40;91.70
40556;DHT22;26250;45.422;11.100;2022-11-06T20:56:13;11.40;91.50
40556;DHT22;26250;45.422;11.100;2022-11-06T20:58:42;11.40;91.80
40556;DHT22;26250;45.422;11.100;2022-11-06T21:01:13;11.30;92.00
40556;DHT22;26250;45.422;11.100;2022-11-06T21:03:43;11.20;92.00
40556;DHT22;26250;45.422;11.100;2022-11-06T21:06:11;11.10;92.10
40556;DHT22;26250;45.422;11.100;2022-11-06T21:08:39;11.20;92.00
40556;DHT22;26250;45.422;11.100;2022-11-06T21:11:14;11.10;92.30
40556;DHT22;26250;45.422;11.100;2022-11-06T21:13:44;10.90;92.40
40556;DHT22;26250;45.422;11.100;2022-11-06T21:16:12;10.90;92.70
40556;DHT22;26250;45.422;11.100;2022-11-06T21:18:40;10.90;92.00
40556;DHT22;26250;45.422;11.100;2022-11-06T21:21:11;11.00;91.70
40556;DHT22;26250;45.422;11.100;2022-11-06T21:23:38;11.00;91.60
40556;DHT22;26250;45.422;11.100;2022-11-06T21:26:14;11.00;92.00
40556;DHT22;26250;45.422;11.100;2022-11-06T21:28:41;11.00;91.90
40556;DHT22;26250;45.422;11.100;2022-11-06T21:31:17;11.00;91.90
40556;DHT22;26250;45.422;11.100;2022-11-06T21:33:48;10.80;92.40
40556;DHT22;26250;45.422;11.100;2022-11-06T21:36:18;10.70;92.10
40556;DHT22;26250;45.422;11.100;2022-11-06T21:38:46;10.70;91.80
40556;DHT22;26250;45.422;11.100;2022-11-06T21:41:18;10.80;92.00
40556;DHT22;26250;45.422;11.100;2022-11-06T21:43:46;10.90;92.00
40556;DHT22;26250;45.422;11.100;2022-11-06T21:46:16;10.90;91.90
40556;DHT22;26250;45.422;11.100;2022-11-06T21:48:44;10.90;91.90
40556;DHT22;26250;45.422;11.100;2022-11-06T21:51:20;10.80;92.10
40556;DHT22;26250;45.422;11.100;2022-11-06T21:53:48;10.70;92.00
40556;DHT22;26250;45.422;11.100;2022-11-06T21:56:34;10.70;92.30
40556;DHT22;26250;45.422;11.100;2022-11-06T21:59:02;10.50;92.50
40556;DHT22;26250;45.422;11.100;2022-11-06T22:01:30;10.60;92.40
40556;DHT22;26250;45.422;11.100;2022-11-06T22:03:58;10.70;92.20
40556;DHT22;26250;45.422;11.100;2022-11-06T22:06:27;10.70;92.00
40556;DHT22;26250;45.422;11.100;2022-11-06T22:08:57;10.70;91.30
40556;DHT22;26250;45.422;11.100;2022-11-06T22:11:32;10.80;91.80
40556;DHT22;26250;45.422;11.100;2022-11-06T22:14:01;10.80;90.80
40556;DHT22;26250;45.422;11.100;2022-11-06T22:16:37;10.70;91.10
40556;DHT22;26250;45.422;11.100;2022-11-06T22:19:06;10.80;90.90
40556;DHT22;26250;45.422;11.100;2022-11-06T22:21:35;10.80;90.90
40556;DHT22;26250;45.422;11.100;2022-11-06T22:24:02;10.90;92.80
40556;DHT22;26250;45.422;11.100;2022-11-06T22:26:31;11.00;93.50
40556;DHT22;26250;45.422;11.100;2022-11-06T22:29:06;11.10;91.90
40556;DHT22;26250;45.422;11.100;2022-11-06T22:31:34;11.20;93.60
40556;DHT22;26250;45.422;11.100;2022-11-06T22:34:01;11.20;92.20
40556;DHT22;26250;45.422;11.100;2022-11-06T22:36:28;11.20;93.60
40556;DHT22;26250;45.422;11.100;2022-11-06T22:38:55;11.10;92.70
40556;DHT22;26250;45.422;11.100;2022-11-06T22:41:23;11.10;91.80
40556;DHT22;26250;45.422;11.100;2022-11-06T22:43:51;11.10;90.90
40556;DHT22;26250;45.422;11.100;2022-11-06T22:46:21;11.10;90.70
40556;DHT22;26250;45.422;11.100;2022-11-06T22:48:50;11.00;90.50
40556;DHT22;26250;45.422;11.100;2022-11-06T22:51:28;10.90;90.80
40556;DHT22;26250;45.422;11.100;2022-11-06T22:53:56;10.90;90.60
40556;DHT22;26250;45.422;11.100;2022-11-06T22:56:25;10.70;90.90
40556;DHT22;26250;45.422;11.100;2022-11-06T22:58:57;10.50;91.50
40556;DHT22;26250;45.422;11.100;2022-11-06T23:01:26;10.60;91.40
40556;DHT22;26250;45.422;11.100;2022-11-06T23:03:53;10.50;91.60
40556;DHT22;26250;45.422;11.100;2022-11-06T23:06:24;10.50;91.90
40556;DHT22;26250;45.422;11.100;2022-11-06T23:08:52;10.60;91.60
40556;DHT22;26250;45.422;11.100;2022-11-06T23:11:20;10.60;91.90
40556;DHT22;26250;45.422;11.100;2022-11-06T23:13:50;10.70;91.70
40556;DHT22;26250;45.422;11.100;2022-11-06T23:16:25;10.70;91.80
40556;DHT22;26250;45.422;11.100;2022-11-06T23:19:14;10.70;91.70
40556;DHT22;26250;45.422;11.100;2022-11-06T23:21:41;10.70;91.80
40556;DHT22;26250;45.422;11.100;2022-11-06T23:24:09;10.70;92.30
40556;DHT22;26250;45.422;11.100;2022-11-06T23:26:36;10.60;92.00
40556;DHT22;26250;45.422;11.100;2022-11-06T23:29:03;10.60;92.30
40556;DHT22;26250;45.422;11.100;2022-11-06T23:31:30;10.40;92.60
40556;DHT22;26250;45.422;11.100;2022-11-06T23:33:57;10.40;92.80
40556;DHT22;26250;45.422;11.100;2022-11-06T23:36:23;10.40;92.80
40556;DHT22;26250;45.422;11.100;2022-11-06T23:38:53;10.40;92.90
40556;DHT22;26250;45.422;11.100;2022-11-06T23:41:20;10.40;93.00
40556;DHT22;26250;45.422;11.100;2022-11-06T23:44:05;10.50;92.80
40556;DHT22;26250;45.422;11.100;2022-11-06T23:46:52;10.60;92.60
40556;DHT22;26250;45.422;11.100;2022-11-06T23:49:19;10.60;92.60
40556;DHT22;26250;45.422;11.100;2022-11-06T23:51:46;10.70;92.50
40556;DHT22;26250;45.422;11.100;2022-11-06T23:54:13;10.70;92.50
40556;DHT22;26250;45.422;11.100;2022-11-06T23:56:40;10.70;92.40
40556;DHT22;26250;45.422;11.100;2022-11-06T23:59:07;10.90;92.30
